Airfield :
LOGIN :

Register | Disclaimer

   EN    FR    IT 

 










Legend :    VFR   Marginal VFR   IFR   Intensive IFR   Very Intensive IFR
Visi :
Ceiling :
>= 8 km
>= 3000ft
5 to 8 km
1000 to 3000 ft
1500m to 5 km
500 to 1000 ft
800 to 1500m
200 to 500 ft
< 800m
< 200 ft
Symbols :   Thunderstorms  Fog  Heavy snow  Heavy precipitations  Wind > 20 kt
SIGMETs :     Misc.  Thunderstorms  Icing  Turbulence  Mountain Waves  Volcanic Ashes







- Airport Elevation : 357 ft
- IATA code : TUF
- Download approach charts


LFOT - Tours

CURRENT METAR :
  • 141700Z AUTO 31008KT 270V350 CAVOK 23/14 Q1020 NOSIG

EXPIRED METARs :
  • 141630Z AUTO 31008KT 280V340 9999 FEW041 BKN052 23/14 Q1020 NOSIG
  • 141600Z AUTO 29011KT 250V320 9999 FEW041 BKN052 25/14 Q1020 NOSIG
  • 141530Z AUTO 30005KT 260V350 CAVOK 24/12 Q1020 NOSIG
  • 141500Z AUTO 28008KT 250V350 CAVOK 25/13 Q1020 NOSIG
  • 141430Z AUTO 29009KT 240V320 9999 FEW047 BKN056 24/12 Q1020 NOSIG

TAF TAF LFOT
Valid from the 14 at 12:00 until the 15 at 12:00 UTC


141100Z 1412/1512 28008KT 9999 BKN030
BECMG 1414/1416 CAVOK
BECMG 1501/1504 33005KT 9999 BKN013
TEMPO 1504/1508 BKN006
BECMG 1508/1511 01005KT SCT030
No reported NOTAMs for that airfield.



MET'MAP, your aeronautical weather chart ! - Copyright ORBIFLY December 2007 - Disclaimer

ORBIFLY MET'MAP TEAM :

Programming & Development : Alexandra Zaïnal
Concept & Development : Baudouin d'Aumeries
Co-Development & Prog : Marc-Olivier Méhu
Technical & hardware support : Manuel Goepfert

Contact : metmap@orbifly.com




SOURCES & CREDITS :

   NOAA